createdAt,value
2022-08-16T00:01:01.316Z,24.96
2022-08-16T00:03:28.732Z,24.97
2022-08-16T00:05:57.471Z,24.94
2022-08-16T00:08:36.169Z,24.96
2022-08-16T00:11:06.596Z,24.98
2022-08-16T00:13:41.723Z,24.97
2022-08-16T00:17:06.372Z,24.96
2022-08-16T00:18:59.658Z,24.97
2022-08-16T00:21:28.928Z,24.97
2022-08-16T00:23:57.316Z,24.96
2022-08-16T00:26:35.976Z,24.94
2022-08-16T00:29:06.356Z,24.96
2022-08-16T00:31:59.036Z,24.96
2022-08-16T00:34:21.982Z,24.96
2022-08-16T00:37:09.459Z,24.98
2022-08-16T00:39:36.966Z,24.96
2022-08-16T00:42:10.414Z,24.97
2022-08-16T00:44:37.986Z,24.96
2022-08-16T00:47:08.612Z,24.97
2022-08-16T00:49:39.366Z,24.96
2022-08-16T00:52:29.663Z,24.97
2022-08-16T00:54:59.474Z,24.99
2022-08-16T00:57:33.088Z,24.98
2022-08-16T01:00:19.747Z,24.97
2022-08-16T01:02:48.938Z,24.96
2022-08-16T01:05:16.568Z,24.97
2022-08-16T01:07:51.699Z,24.97
2022-08-16T01:10:32.331Z,24.97
2022-08-16T01:13:12.097Z,24.98
2022-08-16T01:15:43.124Z,25.01
2022-08-16T01:18:39.918Z,24.97
2022-08-16T01:21:16.895Z,24.96
2022-08-16T01:24:52.153Z,24.97
2022-08-16T01:27:23.970Z,25.00
2022-08-16T01:29:59.614Z,24.98
2022-08-16T01:32:34.048Z,24.98
2022-08-16T01:35:27.107Z,24.97
2022-08-16T01:37:56.210Z,24.97
2022-08-16T01:40:29.774Z,24.96
2022-08-16T01:43:01.027Z,25.01
2022-08-16T01:45:40.841Z,25.01
2022-08-16T01:48:19.951Z,25.01
2022-08-16T01:51:09.579Z,25.00
2022-08-16T01:53:40.741Z,25.00
2022-08-16T01:56:25.546Z,25.00
2022-08-16T01:58:57.441Z,24.98
2022-08-16T02:01:27.939Z,24.97
2022-08-16T02:03:58.213Z,24.96
2022-08-16T02:06:34.685Z,24.97
2022-08-16T02:09:05.611Z,24.98
2022-08-16T02:11:47.491Z,24.96
2022-08-16T02:14:18.679Z,24.96
2022-08-16T02:16:50.251Z,24.96
2022-08-16T02:19:19.873Z,24.96
2022-08-16T02:22:08.666Z,24.93
2022-08-16T02:24:42.251Z,24.87
2022-08-16T02:27:13.782Z,24.95
2022-08-16T02:29:42.876Z,24.94
2022-08-16T02:32:50.836Z,24.94
2022-08-16T02:34:59.215Z,24.94
2022-08-16T02:37:51.622Z,24.95
2022-08-16T02:40:17.036Z,24.97
2022-08-16T02:42:45.526Z,24.94
2022-08-16T02:45:15.930Z,24.93
2022-08-16T02:48:01.317Z,24.92
2022-08-16T02:50:55.563Z,24.94
2022-08-16T02:53:23.698Z,24.92
2022-08-16T02:55:52.394Z,24.91
2022-08-16T02:58:25.055Z,24.91
2022-08-16T03:00:55.927Z,24.94
2022-08-16T03:03:26.185Z,24.91
2022-08-16T03:05:57.487Z,24.90
2022-08-16T03:08:52.371Z,24.91
2022-08-16T03:11:16.766Z,24.92
2022-08-16T03:13:51.380Z,24.89
2022-08-16T03:16:36.610Z,24.88
2022-08-16T03:19:07.422Z,24.85
2022-08-16T03:21:38.243Z,24.88
2022-08-16T03:24:29.425Z,24.88
2022-08-16T03:27:00.482Z,24.89
2022-08-16T03:29:32.071Z,24.90
2022-08-16T03:32:01.864Z,24.88
2022-08-16T03:34:30.206Z,24.88
2022-08-16T03:36:58.344Z,24.89
2022-08-16T03:39:26.131Z,24.84
2022-08-16T03:41:59.660Z,24.81
2022-08-16T03:44:44.325Z,24.86
2022-08-16T03:47:18.949Z,24.88
2022-08-16T03:49:51.901Z,24.85
2022-08-16T03:52:23.633Z,24.87
2022-08-16T03:54:58.111Z,24.85
2022-08-16T03:57:32.061Z,24.86
2022-08-16T04:00:35.168Z,24.86
2022-08-16T04:03:09.171Z,24.88
2022-08-16T04:05:44.088Z,24.87
2022-08-16T04:08:22.902Z,24.86
2022-08-16T04:10:55.143Z,24.87
2022-08-16T04:14:01.590Z,24.87
2022-08-16T04:16:27.205Z,24.87
2022-08-16T04:19:06.469Z,24.88
2022-08-16T04:21:35.539Z,24.86
2022-08-16T04:24:03.810Z,24.87
2022-08-16T04:26:35.858Z,24.88
2022-08-16T04:29:16.394Z,24.88
2022-08-16T04:31:55.683Z,24.87
2022-08-16T04:34:32.451Z,24.87
2022-08-16T04:37:01.697Z,24.87
2022-08-16T04:39:44.971Z,24.87
2022-08-16T04:42:17.562Z,24.88
2022-08-16T04:44:54.169Z,24.89
2022-08-16T04:47:31.698Z,24.88
2022-08-16T04:50:03.688Z,24.86
2022-08-16T04:52:34.925Z,24.87
2022-08-16T04:55:12.030Z,24.87
2022-08-16T04:57:41.403Z,24.88
2022-08-16T05:00:30.376Z,24.90
2022-08-16T05:03:07.489Z,24.88
2022-08-16T05:05:45.480Z,24.89
2022-08-16T05:08:29.917Z,24.87
2022-08-16T05:11:08.257Z,24.88
2022-08-16T05:13:42.670Z,24.86
2022-08-16T05:16:22.984Z,24.87
2022-08-16T05:18:58.366Z,24.88
2022-08-16T05:21:35.960Z,24.86
2022-08-16T05:24:09.190Z,24.86
2022-08-16T05:26:43.031Z,24.87
2022-08-16T05:29:15.245Z,24.87
2022-08-16T05:31:55.343Z,24.88
2022-08-16T05:34:22.853Z,24.87
2022-08-16T05:36:57.236Z,24.86
2022-08-16T05:39:29.069Z,24.86
2022-08-16T05:42:01.204Z,24.86
2022-08-16T05:44:28.948Z,24.85
2022-08-16T05:47:00.638Z,24.85
2022-08-16T05:49:39.669Z,24.86
2022-08-16T05:52:13.428Z,24.86
2022-08-16T05:54:47.332Z,24.86
2022-08-16T05:57:17.968Z,24.86
2022-08-16T05:59:47.393Z,24.87
2022-08-16T06:02:18.594Z,24.86
2022-08-16T06:04:47.017Z,24.87
2022-08-16T06:07:25.034Z,24.87
2022-08-16T06:10:11.882Z,24.88
2022-08-16T06:12:39.631Z,24.86
2022-08-16T06:15:11.588Z,24.86
2022-08-16T06:17:44.358Z,24.87
2022-08-16T06:20:24.365Z,24.88
2022-08-16T06:23:03.099Z,24.90
2022-08-16T06:25:39.510Z,24.89
2022-08-16T06:28:09.660Z,24.89
2022-08-16T06:30:44.211Z,24.89
2022-08-16T06:33:19.878Z,24.90
2022-08-16T06:35:55.021Z,24.91
2022-08-16T06:38:33.413Z,24.90
2022-08-16T06:41:13.719Z,24.90
2022-08-16T06:43:42.598Z,24.92
2022-08-16T06:46:32.066Z,24.90
2022-08-16T06:49:07.463Z,24.91
2022-08-16T06:51:46.089Z,24.91
2022-08-16T06:54:19.564Z,24.92
2022-08-16T06:56:47.282Z,24.92
2022-08-16T06:59:20.090Z,24.91
2022-08-16T07:01:55.257Z,24.92
2022-08-16T07:04:32.668Z,24.93
2022-08-16T07:07:15.563Z,24.93
2022-08-16T07:09:43.606Z,24.92
2022-08-16T07:12:11.839Z,24.91
2022-08-16T07:14:45.342Z,24.92
2022-08-16T07:17:18.317Z,24.92
2022-08-16T07:20:03.951Z,24.93
2022-08-16T07:22:59.138Z,24.93
2022-08-16T07:25:41.100Z,24.94
2022-08-16T07:28:20.744Z,24.92
2022-08-16T07:30:53.906Z,24.94
2022-08-16T07:33:52.226Z,24.93
2022-08-16T07:36:22.652Z,24.94
2022-08-16T07:38:52.378Z,24.93
2022-08-16T07:41:20.866Z,24.92
2022-08-16T07:43:53.789Z,24.94
2022-08-16T07:46:38.527Z,24.92
2022-08-16T07:49:18.121Z,24.93
2022-08-16T07:51:46.117Z,24.92
2022-08-16T07:54:21.141Z,24.93
2022-08-16T07:57:01.901Z,24.92
2022-08-16T07:59:42.889Z,24.93
2022-08-16T08:02:20.396Z,24.93
2022-08-16T08:04:51.888Z,24.94
2022-08-16T08:07:20.864Z,24.92
2022-08-16T08:09:51.009Z,24.92
2022-08-16T08:12:32.368Z,24.92
2022-08-16T08:15:09.680Z,24.93
2022-08-16T08:17:43.198Z,24.94
2022-08-16T08:20:26.348Z,24.94
2022-08-16T08:23:00.929Z,24.95
2022-08-16T08:25:53.826Z,24.95
2022-08-16T08:28:24.162Z,24.95
2022-08-16T08:31:01.128Z,24.94
2022-08-16T08:33:31.947Z,24.93
2022-08-16T08:36:03.093Z,24.93
2022-08-16T08:38:45.872Z,24.94
2022-08-16T08:41:19.013Z,24.94
2022-08-16T08:43:51.528Z,24.93
2022-08-16T08:46:22.047Z,24.94
2022-08-16T08:48:59.628Z,24.94
2022-08-16T08:51:36.821Z,24.95
2022-08-16T08:54:09.392Z,24.94
2022-08-16T08:56:45.924Z,24.95
2022-08-16T08:59:40.991Z,24.95
2022-08-16T09:02:11.643Z,24.93
2022-08-16T09:04:47.805Z,24.95
2022-08-16T09:07:18.217Z,24.94
2022-08-16T09:09:47.704Z,24.94
2022-08-16T09:12:31.265Z,24.94
2022-08-16T09:15:11.475Z,24.94
2022-08-16T09:17:51.938Z,24.96
2022-08-16T09:20:27.696Z,24.94
2022-08-16T09:22:55.608Z,24.93
2022-08-16T09:25:34.099Z,24.95
2022-08-16T09:28:09.236Z,24.96
2022-08-16T09:30:45.641Z,24.95
2022-08-16T09:33:18.399Z,24.94
2022-08-16T09:35:53.224Z,24.95
2022-08-16T09:38:32.301Z,24.95
2022-08-16T09:41:01.187Z,24.96
2022-08-16T09:43:58.605Z,24.95
2022-08-16T09:46:48.447Z,24.96
2022-08-16T09:49:04.927Z,24.97
2022-08-16T09:51:37.535Z,24.97
2022-08-16T09:54:05.807Z,24.96
2022-08-16T09:56:34.719Z,24.95
2022-08-16T09:59:07.992Z,24.95
2022-08-16T10:01:36.801Z,24.96
2022-08-16T10:04:13.051Z,24.97
2022-08-16T10:09:25.648Z,24.97
2022-08-16T10:12:31.392Z,24.98
2022-08-16T10:15:00.938Z,24.96
2022-08-16T10:17:29.699Z,24.95
2022-08-16T10:19:57.793Z,24.95
2022-08-16T10:22:25.401Z,24.95
2022-08-16T10:24:55.967Z,24.96
2022-08-16T10:27:29.968Z,24.96
2022-08-16T10:30:24.735Z,24.96
2022-08-16T10:32:54.069Z,24.98
2022-08-16T10:35:21.530Z,24.96
2022-08-16T10:37:52.376Z,24.96
2022-08-16T10:40:29.144Z,24.96
2022-08-16T10:43:01.169Z,24.96
2022-08-16T10:45:36.409Z,24.97
2022-08-16T10:48:27.144Z,24.96
2022-08-16T10:50:59.717Z,24.98
2022-08-16T10:53:32.937Z,24.97
2022-08-16T10:56:06.443Z,24.97
2022-08-16T10:58:53.319Z,24.98
2022-08-16T11:01:43.829Z,24.97
2022-08-16T11:05:04.871Z,24.98
2022-08-16T11:09:44.100Z,24.98
2022-08-16T11:12:14.743Z,24.98
2022-08-16T11:15:11.227Z,24.98
2022-08-16T11:17:32.718Z,24.98
2022-08-16T11:20:36.701Z,24.97
2022-08-16T11:22:49.146Z,24.97
2022-08-16T11:28:06.611Z,24.98
2022-08-16T11:30:37.845Z,24.97
2022-08-16T11:33:07.836Z,24.97
2022-08-16T11:35:44.114Z,24.97
2022-08-16T11:38:47.369Z,24.97
2022-08-16T11:41:05.159Z,24.97
2022-08-16T11:43:36.639Z,24.95
2022-08-16T11:46:43.279Z,24.96
2022-08-16T11:48:55.661Z,24.97
2022-08-16T11:51:23.065Z,24.97
2022-08-16T11:53:50.545Z,24.97
2022-08-16T11:56:29.951Z,24.96
2022-08-16T11:59:07.256Z,24.97
2022-08-16T12:01:54.704Z,24.98
2022-08-16T12:04:22.502Z,24.98
2022-08-16T12:06:50.144Z,24.97
2022-08-16T12:09:21.888Z,24.97
2022-08-16T12:11:50.134Z,24.97
2022-08-16T12:14:23.041Z,24.97
2022-08-16T12:16:55.526Z,24.96
2022-08-16T12:19:33.676Z,24.97
2022-08-16T12:22:05.382Z,24.97
2022-08-16T12:24:34.170Z,24.97
2022-08-16T12:27:02.449Z,24.97
2022-08-16T12:29:30.524Z,24.97
2022-08-16T12:32:26.590Z,24.97
2022-08-16T12:34:52.690Z,24.98
2022-08-16T12:37:21.190Z,24.97
2022-08-16T12:39:56.303Z,24.97
2022-08-16T12:42:34.490Z,24.98
2022-08-16T12:45:04.995Z,24.97
2022-08-16T12:47:51.402Z,24.96
2022-08-16T12:50:19.098Z,24.97
2022-08-16T12:52:52.513Z,24.96
2022-08-16T12:55:20.891Z,25.02
2022-08-16T12:57:58.649Z,25.03
2022-08-16T13:00:33.081Z,25.01
2022-08-16T13:03:01.892Z,25.00
2022-08-16T13:08:20.210Z,24.98
2022-08-16T13:10:50.669Z,24.97
2022-08-16T13:13:29.457Z,24.97
2022-08-16T13:16:02.087Z,24.98
2022-08-16T13:18:36.091Z,24.99
2022-08-16T13:21:07.345Z,24.97
2022-08-16T13:23:35.686Z,24.97
2022-08-16T13:26:04.273Z,24.97
2022-08-16T13:28:31.691Z,24.98
2022-08-16T13:31:00.299Z,24.97
2022-08-16T13:33:39.282Z,24.97
2022-08-16T13:36:17.187Z,24.96
2022-08-16T13:38:56.490Z,24.97
2022-08-16T13:41:30.004Z,24.96
2022-08-16T13:44:00.719Z,24.96
2022-08-16T13:46:30.242Z,24.97
2022-08-16T13:48:58.206Z,24.97
2022-08-16T13:51:28.986Z,24.96
2022-08-16T13:54:03.174Z,24.97
2022-08-16T13:56:37.619Z,24.98
2022-08-16T13:59:19.211Z,24.97
2022-08-16T14:01:55.930Z,24.98
2022-08-16T14:04:27.834Z,24.97
2022-08-16T14:06:58.765Z,24.97
2022-08-16T14:09:27.021Z,24.98
2022-08-16T14:11:55.948Z,24.98
2022-08-16T14:14:29.360Z,24.98
2022-08-16T14:16:58.518Z,24.98
2022-08-16T14:19:27.976Z,24.98
2022-08-16T14:22:14.444Z,24.97
2022-08-16T14:24:47.392Z,24.98
2022-08-16T14:27:18.832Z,24.98
2022-08-16T14:29:49.470Z,24.99
2022-08-16T14:32:27.080Z,24.99
2022-08-16T14:35:07.690Z,24.98
2022-08-16T14:37:35.705Z,25.01
2022-08-16T14:40:07.853Z,24.99
2022-08-16T14:42:36.637Z,25.00
2022-08-16T14:45:06.089Z,24.99
2022-08-16T14:47:37.133Z,24.98
2022-08-16T14:50:06.034Z,24.99
2022-08-16T14:55:21.619Z,24.99
2022-08-16T14:57:49.799Z,24.99
2022-08-16T15:00:32.771Z,25.00
2022-08-16T15:03:02.078Z,24.98
2022-08-16T15:08:02.108Z,25.00
2022-08-16T15:10:31.986Z,24.99
2022-08-16T15:13:01.112Z,24.98
2022-08-16T15:15:29.293Z,24.97
2022-08-16T15:17:57.754Z,24.98
2022-08-16T15:20:27.054Z,24.99
2022-08-16T15:23:01.363Z,25.00
2022-08-16T15:25:33.642Z,25.00
2022-08-16T15:28:05.442Z,24.99
2022-08-16T15:30:57.646Z,24.98
2022-08-16T15:33:25.489Z,24.98
2022-08-16T15:35:55.291Z,25.00
2022-08-16T15:38:57.962Z,24.99
2022-08-16T15:41:42.478Z,25.00
2022-08-16T15:44:21.341Z,25.00
2022-08-16T15:46:55.010Z,25.01
2022-08-16T15:49:37.590Z,25.00
2022-08-16T15:52:20.365Z,24.99
2022-08-16T15:54:52.374Z,25.00
2022-08-16T15:57:24.726Z,25.00
2022-08-16T15:59:58.414Z,25.01
2022-08-16T16:02:39.170Z,25.01
2022-08-16T16:05:09.770Z,25.00
2022-08-16T16:07:40.641Z,24.98
2022-08-16T16:10:13.177Z,25.00
2022-08-16T16:12:53.540Z,25.00
2022-08-16T16:15:25.265Z,25.00
2022-08-16T16:17:53.362Z,25.01
2022-08-16T16:20:21.705Z,25.01
2022-08-16T16:22:49.948Z,25.01
2022-08-16T16:25:18.021Z,24.99
2022-08-16T16:27:45.606Z,24.99
2022-08-16T16:30:37.897Z,25.00
2022-08-16T16:33:02.113Z,25.01
2022-08-16T16:35:32.881Z,25.00
2022-08-16T16:38:01.001Z,25.00
2022-08-16T16:40:33.237Z,25.01
2022-08-16T16:43:02.561Z,25.01
2022-08-16T16:45:34.931Z,25.00
2022-08-16T16:48:12.823Z,25.01
2022-08-16T16:50:44.672Z,25.01
2022-08-16T16:53:17.630Z,25.00
2022-08-16T16:55:47.526Z,25.00
2022-08-16T16:58:38.846Z,25.01
2022-08-16T17:01:08.268Z,25.01
2022-08-16T17:03:35.829Z,25.01
2022-08-16T17:06:09.314Z,25.00
2022-08-16T17:08:40.784Z,25.00
2022-08-16T17:11:09.860Z,25.00
2022-08-16T17:13:37.377Z,25.01
2022-08-16T17:16:05.638Z,25.01
2022-08-16T17:19:15.057Z,25.00
2022-08-16T17:21:24.848Z,25.01
2022-08-16T17:23:59.034Z,25.02
2022-08-16T17:26:30.876Z,25.01
2022-08-16T17:29:02.139Z,25.01
2022-08-16T17:31:43.480Z,25.00
2022-08-16T17:34:29.319Z,25.01
2022-08-16T17:37:00.442Z,25.02
2022-08-16T17:39:29.918Z,25.00
2022-08-16T17:41:58.790Z,25.02
2022-08-16T17:44:26.227Z,25.02
2022-08-16T17:46:53.696Z,25.02
2022-08-16T17:49:21.491Z,25.02
2022-08-16T17:51:51.342Z,24.99
2022-08-16T17:54:30.032Z,25.01
2022-08-16T17:57:00.801Z,25.00
2022-08-16T17:59:29.141Z,25.02
2022-08-16T18:01:57.348Z,25.01
2022-08-16T18:04:48.399Z,25.01
2022-08-16T18:07:12.820Z,25.04
2022-08-16T18:09:46.132Z,25.03
2022-08-16T18:12:20.524Z,25.02
2022-08-16T18:15:07.383Z,25.03
2022-08-16T18:17:34.903Z,25.04
2022-08-16T18:20:02.632Z,25.02
2022-08-16T18:22:31.033Z,25.00
2022-08-16T18:24:58.571Z,25.01
2022-08-16T18:27:32.619Z,25.02
2022-08-16T18:30:00.264Z,25.03
2022-08-16T18:32:28.338Z,25.01
2022-08-16T18:34:55.744Z,25.01
2022-08-16T18:37:23.771Z,25.02
2022-08-16T18:39:51.313Z,25.00
2022-08-16T18:42:21.531Z,25.01
2022-08-16T18:44:49.169Z,25.01
2022-08-16T18:47:17.658Z,25.01
2022-08-16T18:49:45.090Z,25.01
2022-08-16T18:52:14.794Z,25.00
2022-08-16T18:55:03.007Z,25.01
2022-08-16T18:57:40.496Z,25.02
2022-08-16T19:00:11.420Z,25.00
2022-08-16T19:02:57.538Z,25.01
2022-08-16T19:05:27.373Z,25.01
2022-08-16T19:07:54.803Z,25.01
2022-08-16T19:10:22.320Z,25.00
2022-08-16T19:12:49.971Z,25.01
2022-08-16T19:15:22.417Z,25.00
2022-08-16T19:17:49.970Z,25.00
2022-08-16T19:20:18.942Z,25.00
2022-08-16T19:25:48.247Z,25.01
2022-08-16T19:28:33.315Z,25.01
2022-08-16T19:31:17.117Z,25.00
2022-08-16T19:33:53.806Z,25.01
2022-08-16T19:36:35.164Z,25.00
2022-08-16T19:39:14.243Z,25.00
2022-08-16T19:41:44.446Z,25.00
2022-08-16T19:44:11.887Z,25.00
2022-08-16T19:46:43.485Z,24.97
2022-08-16T19:49:15.842Z,25.00
2022-08-16T19:51:47.255Z,24.98
2022-08-16T19:54:17.650Z,25.01
2022-08-16T19:56:45.087Z,25.00
2022-08-16T19:59:20.069Z,24.99
2022-08-16T20:01:51.102Z,25.00
2022-08-16T20:04:18.894Z,24.98
2022-08-16T20:06:47.115Z,24.98
2022-08-16T20:09:15.607Z,24.99
2022-08-16T20:11:44.719Z,24.98
2022-08-16T20:14:24.732Z,24.99
2022-08-16T20:16:54.942Z,24.97
2022-08-16T20:19:22.365Z,24.99
2022-08-16T20:21:49.907Z,24.99
2022-08-16T20:24:33.668Z,24.98
2022-08-16T20:27:05.679Z,25.00
2022-08-16T20:29:33.264Z,25.00
2022-08-16T20:32:00.764Z,24.98
2022-08-16T20:34:28.170Z,24.97
2022-08-16T20:36:55.592Z,24.97
2022-08-16T20:39:24.157Z,24.97
2022-08-16T20:41:51.690Z,24.97
2022-08-16T20:44:23.022Z,24.97
2022-08-16T20:46:52.931Z,24.98
2022-08-16T20:49:20.376Z,24.98
2022-08-16T20:51:50.503Z,24.98
2022-08-16T20:54:20.412Z,24.98
2022-08-16T20:56:48.177Z,24.99
2022-08-16T20:59:15.601Z,24.97
2022-08-16T21:01:46.221Z,24.97
2022-08-16T21:04:21.614Z,24.98
2022-08-16T21:06:54.369Z,24.97
2022-08-16T21:09:24.166Z,24.98
2022-08-16T21:11:52.895Z,24.98
2022-08-16T21:14:20.314Z,24.98
2022-08-16T21:16:47.758Z,24.99
2022-08-16T21:19:15.221Z,24.98
2022-08-16T21:21:42.644Z,24.97
2022-08-16T21:24:10.083Z,24.97
2022-08-16T21:26:39.045Z,24.98
2022-08-16T21:29:07.723Z,24.98
2022-08-16T21:31:40.659Z,24.97
2022-08-16T21:34:08.578Z,25.00
2022-08-16T21:36:36.682Z,24.98
2022-08-16T21:39:05.735Z,25.00
2022-08-16T21:41:34.408Z,24.98
2022-08-16T21:44:05.040Z,24.97
2022-08-16T21:46:33.902Z,24.99
2022-08-16T21:49:01.327Z,25.00
2022-08-16T21:51:28.779Z,24.99
2022-08-16T21:53:56.891Z,24.98
2022-08-16T21:56:24.352Z,24.99
2022-08-16T21:58:53.013Z,25.00
2022-08-16T22:01:23.861Z,24.98
2022-08-16T22:04:03.515Z,25.00
2022-08-16T22:06:39.134Z,25.00
2022-08-16T22:09:06.959Z,24.99
2022-08-16T22:11:34.420Z,24.98
2022-08-16T22:14:02.364Z,24.98
2022-08-16T22:16:31.691Z,24.98
2022-08-16T22:18:59.947Z,24.99
2022-08-16T22:21:27.451Z,25.00
2022-08-16T22:23:55.577Z,24.97
2022-08-16T22:26:32.651Z,24.98
2022-08-16T22:29:02.486Z,24.98
2022-08-16T22:31:30.097Z,24.98
2022-08-16T22:33:59.577Z,24.98
2022-08-16T22:36:28.803Z,24.98
2022-08-16T22:38:58.764Z,24.99
2022-08-16T22:41:31.767Z,24.97
2022-08-16T22:44:00.202Z,24.99
2022-08-16T22:46:27.686Z,24.98
2022-08-16T22:48:55.127Z,25.00
2022-08-16T22:51:23.656Z,24.98
2022-08-16T22:53:51.482Z,24.99
2022-08-16T22:56:20.419Z,24.98
2022-08-16T22:58:49.614Z,24.98
2022-08-16T23:01:18.825Z,24.98
2022-08-16T23:03:46.400Z,24.97
2022-08-16T23:06:15.529Z,24.98
2022-08-16T23:08:45.816Z,24.97
2022-08-16T23:11:22.560Z,24.97
2022-08-16T23:13:54.266Z,24.97
2022-08-16T23:16:30.853Z,24.97
2022-08-16T23:19:04.441Z,24.98
2022-08-16T23:21:32.200Z,24.98
2022-08-16T23:24:00.032Z,24.99
2022-08-16T23:26:46.488Z,24.97
2022-08-16T23:29:24.367Z,24.97
2022-08-16T23:32:10.725Z,24.97
2022-08-16T23:34:38.365Z,24.97
2022-08-16T23:37:08.679Z,24.96
2022-08-16T23:39:36.247Z,24.97
2022-08-16T23:42:15.423Z,24.95
2022-08-16T23:45:04.483Z,24.97
2022-08-16T23:47:33.983Z,24.96
2022-08-16T23:50:04.062Z,24.94
2022-08-16T23:52:45.724Z,24.95
2022-08-16T23:55:22.513Z,24.97
2022-08-16T23:57:50.199Z,24.97
